Las Americas, Dominican Republic

10:36 AM AST on September 01, 2014 (GMT -0400)
Las Americas International | Change Station
CLOSE
Current Station
Airport
Location: Las Americas,
Elevation: 59 ft
Nearby Weather Stations

Elev 59 ft 18.43 °N, 69.67 °W | Updated 36 minutes ago

Scattered Clouds
Scattered Clouds
84 °F
Feels Like 92 °F
N
8
Wind Variable Wind from East

Today
High -- | Low -- °F
--% Chance of Precip.
Yesterday
High -- | Low -- °F
Precip. -- in
6:24 AM 6:52 PM
Waxing Crescent, 41% visible
Pressure 30.01 in
Visibility 6.2 miles
Clouds Scattered Clouds 2000 ft
Heat Index 92 °F
Dew Point 75 °F
Humidity 74%
Rainfall 0.00 in
Snow Depth Not available.
UV 9 out of 12
Pollen Not available.
Air Quality Not available.
Flu Activity Not available.
METAR MDSD 011400Z 014000Z 09007KT 9999 SCT020 29/24 Q1016 NOSIG

More Conditions Fewer Conditions

Pressure 30.01 in
Visibility 6.2 miles
Clouds Scattered Clouds 2000 ft
Heat Index 92 °F
Dew Point 75 °F
Humidity 74%
Rainfall 0.00 in
Snow Depth Not available.
UV 9 out of 12
Pollen Not available.
Air Quality Not available.
Flu Activity Not available.
METAR MDSD 011400Z 014000Z 09007KT 9999 SCT020 29/24 Q1016 NOSIG

More Conditions Fewer Conditions

10-Day Weather Forecast

Almanac

Astronomy

Sep. 01, 2014 Rise Set
Actual Time 6:24 AM AST 6:52 PM AST
Civil Twilight 6:02 AM AST 7:14 PM AST
Nautical Twilight 5:36 AM AST 7:40 PM AST
Astronomical Twilight 5:10 AM AST 8:06 PM AST
Moon 12:11 PM AST 11:47 PM AST
Length of Visible Light 13h 12m
Length of Day
12h 28m
Tomorrow will be 0m 59s shorter.
Waxing Crescent, 41% of the Moon is Illuminated
Today
Waxing Crescent
Sep 2
First Quarter
Sep 8
Full
Sep 15
Last Quarter
Sep 24
New

Yesterday's Extremes

Country Highs Country Lows

Community

WunderPhotos

Upload Photos

1,749,248 photos uploaded!

Nearby

Snow Depth

Not available.

Earthquake Activity

City Distance Mag. Time & Date
No recent earthquake activity has been reported nearby.
Minimum magnitude displayed is 2.5.

Coastal Water Temperatures

Place Temperature
No Stations Reporting

Nearby Weather Stations